Time;durP1;ratioP1;P1;durP2;ratioP2;P2;SDS_P1;SDS_P2;PMS_P1;PMS_P2;Temp;Humidity;BMP_temperature;BMP_pressure;BME280_temperature;BME280_humidity;BME280_pressure;Samples;Min_cycle;Max_cycle;Signal;HPM_P1;HPM_P2
2022/03/24 06:35:48;;;;;;;80.70;39.67;;;8.40;99.90;;;;;;4082723;29;20227;-94
2022/03/24 06:37:51;;;;;;;74.73;39.47;;;8.30;99.90;;;;;;4055474;29;20298;-94
2022/03/24 06:39:51;;;;;;;86.57;41.50;;;8.40;99.90;;;;;;4071368;29;20179;-93
2022/03/24 06:41:52;;;;;;;74.83;40.77;;;8.40;99.90;;;;;;4072294;29;20538;-93
2022/03/24 06:43:57;;;;;;;76.27;39.70;;;8.50;99.90;;;;;;4055333;29;20180;-93
2022/03/24 06:45:58;;;;;;;90.47;42.23;;;8.50;99.90;;;;;;4056028;29;20582;-93
2022/03/24 06:47:59;;;;;;;83.70;40.30;;;8.70;99.90;;;;;;4071759;29;20199;-92
2022/03/24 06:50:00;;;;;;;97.90;42.70;;;8.80;99.90;;;;;;4056696;29;20173;-93
2022/03/24 06:52:00;;;;;;;86.10;41.83;;;8.90;99.90;;;;;;4055293;29;20239;-93
2022/03/24 06:54:02;;;;;;;85.77;42.10;;;9.10;99.90;;;;;;4071819;29;20541;-93
2022/03/24 06:56:05;;;;;;;75.80;41.43;;;9.20;99.90;;;;;;4055583;29;20260;-92
2022/03/24 06:58:06;;;;;;;87.07;43.73;;;9.40;99.90;;;;;;4070792;29;20211;-93
2022/03/24 07:00:07;;;;;;;82.70;41.97;;;9.60;99.90;;;;;;4071129;29;20213;-94
2022/03/24 07:02:07;;;;;;;80.30;41.47;;;9.80;99.90;;;;;;4056719;29;20169;-91
2022/03/24 07:04:08;;;;;;;76.57;40.53;;;10.00;99.90;;;;;;4070801;29;20195;-92
2022/03/24 07:06:09;;;;;;;84.33;42.00;;;10.60;99.90;;;;;;4055307;29;20196;-92
2022/03/24 07:08:11;;;;;;;75.47;40.23;;;11.60;99.90;;;;;;4070833;29;20655;-93
2022/03/24 07:10:12;;;;;;;67.53;39.20;;;12.90;99.90;;;;;;4055182;29;20184;-94
2022/03/24 07:12:13;;;;;;;68.50;39.05;;;14.20;99.90;;;;;;4054957;29;20216;-94
2022/03/24 07:14:13;;;;;;;63.65;37.83;;;15.20;99.90;;;;;;4070586;29;20253;-94
2022/03/24 07:16:14;;;;;;;75.50;39.53;;;16.20;99.90;;;;;;4055151;29;20197;-95
2022/03/24 07:18:19;;;;;;;64.68;38.35;;;17.00;99.90;;;;;;4056333;29;20169;-92
2022/03/24 07:20:20;;;;;;;68.55;40.28;;;17.80;99.90;;;;;;4056173;29;20197;-94
2022/03/24 07:22:20;;;;;;;65.93;41.20;;;18.60;99.90;;;;;;4054990;29;20240;-94
2022/03/24 07:24:21;;;;;;;64.80;39.83;;;19.40;99.90;;;;;;4070552;29;20231;-94
2022/03/24 07:26:23;;;;;;;72.13;40.75;;;19.90;99.90;;;;;;4054470;29;20685;-94
2022/03/24 07:28:24;;;;;;;78.70;40.97;;;20.40;99.90;;;;;;4071970;29;20165;-96
2022/03/24 07:30:25;;;;;;;76.82;40.25;;;20.90;99.90;;;;;;4072114;29;20167;-93
2022/03/24 07:32:26;;;;;;;69.28;39.78;;;21.40;99.90;;;;;;4073341;29;20224;-95
2022/03/24 07:34:28;;;;;;;77.13;41.88;;;21.80;99.90;;;;;;4074894;29;20193;-96
2022/03/24 07:36:29;;;;;;;67.13;41.22;;;21.90;99.90;;;;;;4078376;29;20206;-95
2022/03/24 07:38:30;;;;;;;63.20;41.22;;;22.20;99.90;;;;;;4070684;29;20180;-94
2022/03/24 07:40:31;;;;;;;69.03;42.80;;;22.60;99.90;;;;;;4054960;29;20276;-95
2022/03/24 07:42:32;;;;;;;65.10;43.20;;;22.80;99.90;;;;;;4086236;29;20179;-95
2022/03/24 07:44:33;;;;;;;74.15;42.47;;;23.10;99.90;;;;;;4070612;29;20184;-93
2022/03/24 07:46:34;;;;;;;64.47;43.50;;;23.40;99.90;;;;;;4073224;29;20271;-95
2022/03/24 07:48:34;;;;;;;62.65;42.78;;;23.70;99.90;;;;;;4071148;29;20179;-96
2022/03/24 07:50:42;;;;;;;79.90;43.15;;;23.50;99.90;;;;;;4070740;29;20181;-95
2022/03/24 07:52:46;;;;;;;68.15;43.80;;;23.50;99.90;;;;;;4085484;29;20238;-96
2022/03/24 07:54:56;;;;;;;69.55;42.78;;;24.00;99.90;;;;;;4055108;29;20177;-95
2022/03/24 07:57:00;;;;;;;69.38;45.42;;;24.50;99.90;;;;;;4070152;29;20264;-96
2022/03/24 07:59:02;;;;;;;70.82;44.13;;;24.70;99.90;;;;;;4071036;29;20160;-94
2022/03/24 08:01:03;;;;;;;72.68;43.58;;;25.00;99.90;;;;;;4070223;29;20191;-94
2022/03/24 08:03:08;;;;;;;77.57;44.00;;;25.50;99.90;;;;;;4054416;29;20558;-96
2022/03/24 08:05:09;;;;;;;85.63;45.45;;;25.60;99.90;;;;;;4069937;29;20184;-94
2022/03/24 08:07:14;;;;;;;72.18;44.88;;;25.50;99.90;;;;;;4054091;29;20691;-96
2022/03/24 08:09:15;;;;;;;76.30;45.15;;;25.60;99.90;;;;;;4055037;29;20649;-96
2022/03/24 08:11:16;;;;;;;72.32;46.33;;;25.30;99.90;;;;;;4070308;29;20636;-95
2022/03/24 08:13:18;;;;;;;79.88;49.08;;;25.10;99.90;;;;;;4054560;29;20193;-94
2022/03/24 08:15:21;;;;;;;85.80;50.25;;;25.10;99.90;;;;;;4054687;29;20177;-96
2022/03/24 08:17:22;;;;;;;76.25;50.72;;;25.10;99.90;;;;;;4054433;29;20184;-95
2022/03/24 08:19:23;;;;;;;86.72;53.67;;;24.90;99.90;;;;;;4054211;29;20180;-95
2022/03/24 08:21:23;;;;;;;75.55;53.13;;;25.40;99.90;;;;;;4069739;29;20200;-95
2022/03/24 08:23:24;;;;;;;80.03;52.83;;;24.70;99.90;;;;;;4069412;29;20191;-95
2022/03/24 08:25:25;;;;;;;73.07;50.72;;;24.50;99.90;;;;;;4053740;29;20645;-94
2022/03/24 08:27:26;;;;;;;84.65;51.60;;;23.80;99.90;;;;;;4053725;29;20177;-94
2022/03/24 08:29:27;;;;;;;77.30;51.20;;;23.50;99.90;;;;;;4053825;29;20208;-95
2022/03/24 08:31:28;;;;;;;86.28;50.88;;;24.00;99.90;;;;;;4085008;29;20783;-94
2022/03/24 08:33:29;;;;;;;83.93;50.55;;;24.80;99.90;;;;;;4053991;29;20264;-94
2022/03/24 08:35:29;;;;;;;74.38;51.60;;;24.40;99.90;;;;;;4069409;29;20195;-94
2022/03/24 08:37:30;;;;;;;86.28;52.38;;;23.90;99.90;;;;;;4054045;29;20562;-94
2022/03/24 08:39:33;;;;;;;83.07;52.75;;;24.30;99.90;;;;;;4053613;29;20168;-94
2022/03/24 08:41:34;;;;;;;85.03;51.22;;;24.70;99.90;;;;;;4053654;29;20245;-95
2022/03/24 08:43:35;;;;;;;77.32;49.75;;;24.90;99.90;;;;;;4069758;29;20575;-94
2022/03/24 08:45:37;;;;;;;79.47;49.40;;;23.90;99.90;;;;;;4084690;29;20557;-95
2022/03/24 08:47:38;;;;;;;71.88;48.67;;;23.90;99.90;;;;;;4053453;29;20200;-95
2022/03/24 08:49:39;;;;;;;78.03;50.88;;;24.40;99.90;;;;;;4054194;29;20180;-94
2022/03/24 08:51:40;;;;;;;82.13;49.45;;;24.20;99.90;;;;;;4053335;29;20217;-95
2022/03/24 08:53:41;;;;;;;78.50;48.78;;;24.10;99.90;;;;;;4069121;29;20625;-96
2022/03/24 08:55:42;;;;;;;78.78;50.30;;;24.40;99.90;;;;;;4070199;29;20316;-95
2022/03/24 08:57:44;;;;;;;67.20;46.13;;;25.00;99.90;;;;;;4053689;29;20176;-93
2022/03/24 08:59:44;;;;;;;78.07;51.03;;;25.70;99.90;;;;;;4053467;29;20264;-94
2022/03/24 09:01:45;;;;;;;82.07;49.13;;;26.10;99.90;;;;;;4053461;29;20672;-95
2022/03/24 09:03:48;;;;;;;77.60;50.88;;;25.90;99.90;;;;;;4069109;29;20176;-96
2022/03/24 09:05:48;;;;;;;68.00;47.28;;;26.10;99.90;;;;;;4053610;29;20208;-94
2022/03/24 09:07:49;;;;;;;74.00;47.15;;;25.40;99.90;;;;;;4068843;29;20185;-94
2022/03/24 09:09:51;;;;;;;74.70;46.38;;;25.80;99.90;;;;;;4053621;29;20172;-92
2022/03/24 09:11:52;;;;;;;67.25;45.72;;;25.60;99.90;;;;;;4055255;29;20344;-93
2022/03/24 09:13:53;;;;;;;65.03;45.50;;;23.10;99.90;;;;;;4084849;29;20219;-92
2022/03/24 09:15:53;;;;;;;80.53;45.83;;;23.50;99.90;;;;;;4053079;29;20200;-93
2022/03/24 09:17:54;;;;;;;72.88;46.17;;;23.30;99.90;;;;;;4053867;29;20177;-92
2022/03/24 09:19:55;;;;;;;85.18;48.58;;;23.40;99.90;;;;;;4053069;29;20180;-93
2022/03/24 09:21:56;;;;;;;75.25;48.03;;;24.00;99.90;;;;;;4054480;29;20177;-93
2022/03/24 09:23:57;;;;;;;78.88;47.65;;;23.60;99.90;;;;;;4053110;29;20741;-93
2022/03/24 09:25:58;;;;;;;71.72;45.97;;;23.00;99.90;;;;;;4069143;29;20214;-93
2022/03/24 09:27:58;;;;;;;70.63;44.10;;;23.70;99.90;;;;;;4068525;29;20184;-93
2022/03/24 09:29:59;;;;;;;71.30;43.72;;;22.90;99.90;;;;;;4068928;29;20216;-93
2022/03/24 09:32:00;;;;;;;70.10;46.13;;;22.80;99.90;;;;;;4068591;29;20307;-92
2022/03/24 09:34:02;;;;;;;73.88;46.15;;;23.80;99.90;;;;;;4053024;29;20253;-93
2022/03/24 09:36:03;;;;;;;81.72;47.50;;;24.00;99.90;;;;;;4068521;29;20207;-93
2022/03/24 09:38:05;;;;;;;73.40;46.38;;;24.60;99.90;;;;;;4068660;29;20176;-92
2022/03/24 09:40:09;;;;;;;73.38;45.38;;;23.60;99.90;;;;;;4052843;29;20233;-91
2022/03/24 09:42:10;;;;;;;70.10;47.15;;;23.20;99.90;;;;;;4052764;29;20187;-93
2022/03/24 09:44:11;;;;;;;75.88;46.17;;;23.00;99.90;;;;;;4052983;29;20185;-92
2022/03/24 09:46:12;;;;;;;71.95;44.83;;;23.60;99.90;;;;;;4068986;29;20719;-92
2022/03/24 09:48:15;;;;;;;67.85;44.38;;;23.50;99.90;;;;;;4071225;29;20184;-92
2022/03/24 09:50:17;;;;;;;69.28;44.67;;;23.80;99.90;;;;;;4089539;29;20278;-93
2022/03/24 09:52:18;;;;;;;68.03;45.38;;;23.60;99.90;;;;;;4074658;29;20278;-92
2022/03/24 09:54:19;;;;;;;70.57;42.42;;;23.70;99.90;;;;;;4059962;29;20180;-92
2022/03/24 09:56:20;;;;;;;66.13;41.70;;;23.60;99.90;;;;;;4075521;29;20200;-92
2022/03/24 09:58:26;;;;;;;64.63;41.28;;;23.60;99.90;;;;;;4058083;29;20164;-92
2022/03/24 10:00:27;;;;;;;74.38;40.92;;;23.90;99.90;;;;;;4058453;29;20273;-92
2022/03/24 10:02:29;;;;;;;69.68;40.90;;;23.70;99.90;;;;;;4073929;29;20168;-93
2022/03/24 10:04:53;;;;;;;54.25;36.63;;;22.60;99.90;;;;;;4058992;29;20191;-92
2022/03/24 10:07:02;;;;;;;65.25;37.38;;;22.30;99.90;;;;;;4064152;29;20208;-93
2022/03/24 10:09:04;;;;;;;68.40;36.78;;;21.60;99.90;;;;;;4068530;29;20782;-92
2022/03/24 10:11:07;;;;;;;72.05;40.72;;;20.50;99.90;;;;;;4077612;29;20339;-92
2022/03/24 10:13:08;;;;;;;67.38;37.00;;;19.70;99.90;;;;;;4072831;29;20184;-91
2022/03/24 10:15:11;;;;;;;59.97;37.28;;;19.20;99.90;;;;;;4058068;29;20172;-95
2022/03/24 10:17:12;;;;;;;65.32;39.47;;;19.00;99.90;;;;;;4073496;29;20683;-95
2022/03/24 10:19:15;;;;;;;75.28;39.33;;;18.70;99.90;;;;;;4073540;29;20172;-94
2022/03/24 10:21:23;;;;;;;57.90;32.42;;;18.70;99.90;;;;;;4058660;29;20184;-92
2022/03/24 10:23:23;;;;;;;55.13;32.90;;;18.90;99.90;;;;;;4057827;29;20177;-94
2022/03/24 10:25:30;;;;;;;53.58;32.55;;;18.60;99.90;;;;;;4057792;29;20177;-94
2022/03/24 10:27:31;;;;;;;52.80;32.30;;;18.50;99.90;;;;;;4073609;29;20172;-95
2022/03/24 10:29:34;;;;;;;66.45;33.65;;;18.40;99.90;;;;;;4073648;29;20231;-95
2022/03/24 10:31:36;;;;;;;57.97;32.47;;;18.40;99.90;;;;;;4057701;29;20204;-94
2022/03/24 10:33:45;;;;;;;58.88;35.83;;;18.40;99.90;;;;;;4058503;29;20272;-92
2022/03/24 10:35:46;;;;;;;46.15;28.02;;;18.50;99.90;;;;;;4057505;29;20723;-92
2022/03/24 10:37:52;;;;;;;54.55;29.15;;;18.80;99.90;;;;;;4057769;29;20543;-91
2022/03/24 10:39:55;;;;;;;46.72;26.63;;;18.80;99.90;;;;;;4073382;29;20184;-95
2022/03/24 10:42:14;;;;;;;45.28;25.80;;;19.10;99.90;;;;;;4074771;29;20188;-95
2022/03/24 10:44:15;;;;;;;42.53;23.88;;;19.00;99.90;;;;;;4073586;29;20184;-91
2022/03/24 10:46:18;;;;;;;50.15;27.95;;;18.50;99.90;;;;;;4073428;29;20232;-91
2022/03/24 10:48:21;;;;;;;42.85;22.75;;;18.50;99.90;;;;;;4058317;29;20208;-92
2022/03/24 10:50:32;;;;;;;48.95;23.15;;;18.50;99.90;;;;;;4073343;29;20188;-91
2022/03/24 10:52:35;;;;;;;42.10;22.45;;;18.60;99.90;;;;;;4057630;29;20213;-91
2022/03/24 10:54:47;;;;;;;44.60;22.80;;;18.50;99.90;;;;;;4057744;29;20181;-91
2022/03/24 10:56:53;;;;;;;40.10;22.33;;;18.60;99.90;;;;;;4057646;29;20235;-92
2022/03/24 10:59:03;;;;;;;38.00;21.98;;;18.70;99.90;;;;;;4073407;29;20184;-93
2022/03/24 11:01:08;;;;;;;34.45;21.13;;;18.70;99.90;;;;;;4054342;29;20215;-91
2022/03/24 11:03:10;;;;;;;36.75;21.17;;;18.80;99.90;;;;;;4055015;29;20508;-91
2022/03/24 11:05:13;;;;;;;41.42;20.90;;;18.90;99.90;;;;;;4070723;29;20180;-92
2022/03/24 11:07:27;;;;;;;39.35;20.55;;;18.80;99.90;;;;;;4055251;29;20182;-90
2022/03/24 11:09:30;;;;;;;44.00;23.98;;;18.80;99.90;;;;;;4055299;29;20725;-94
2022/03/24 11:11:31;;;;;;;35.85;21.35;;;18.70;99.90;;;;;;4070684;29;20212;-96
2022/03/24 11:13:52;;;;;;;39.85;22.85;;;18.60;99.90;;;;;;4054816;29;20591;-95
2022/03/24 11:15:53;;;;;;;39.83;23.42;;;18.60;99.90;;;;;;4055360;29;21076;-93
2022/03/24 11:17:54;;;;;;;41.42;20.67;;;18.50;99.90;;;;;;4055004;29;20267;-91
2022/03/24 11:20:06;;;;;;;41.95;22.90;;;18.60;99.90;;;;;;4070716;29;20180;-92
2022/03/24 11:22:12;;;;;;;39.05;21.70;;;18.70;99.90;;;;;;4055180;29;20618;-91
2022/03/24 11:24:13;;;;;;;42.78;21.77;;;18.70;99.90;;;;;;4071432;29;20259;-92
2022/03/24 11:26:14;;;;;;;38.55;22.27;;;18.80;99.90;;;;;;4087001;29;20187;-92
2022/03/24 11:28:17;;;;;;;44.90;24.60;;;18.70;99.90;;;;;;4056209;29;20184;-92
2022/03/24 11:30:22;;;;;;;38.80;24.00;;;18.80;99.90;;;;;;4073091;29;20192;-92
2022/03/24 11:32:24;;;;;;;40.00;23.02;;;19.10;99.90;;;;;;4071136;29;20219;-92
2022/03/24 11:34:25;;;;;;;53.58;25.33;;;19.30;99.90;;;;;;4070795;29;20200;-91
2022/03/24 11:36:28;;;;;;;45.97;24.92;;;19.30;99.90;;;;;;4071289;29;20320;-93
2022/03/24 11:38:29;;;;;;;45.38;26.15;;;19.40;99.90;;;;;;4055164;29;20177;-95
2022/03/24 11:40:32;;;;;;;52.08;26.02;;;19.10;99.90;;;;;;4054773;29;20231;-95
2022/03/24 11:42:37;;;;;;;50.03;25.65;;;19.10;99.90;;;;;;4070246;29;20661;-94
2022/03/24 11:44:52;;;;;;;41.83;25.33;;;19.20;99.90;;;;;;4069989;29;20229;-92
2022/03/24 11:47:02;;;;;;;44.90;24.88;;;19.50;99.90;;;;;;4070239;29;20692;-92
2022/03/24 11:49:16;;;;;;;40.15;23.98;;;19.40;99.90;;;;;;4070041;29;20180;-91
2022/03/24 11:51:23;;;;;;;47.17;25.58;;;19.50;99.90;;;;;;4069946;29;20188;-92
2022/03/24 11:53:29;;;;;;;47.53;26.00;;;19.80;99.90;;;;;;4070116;29;20176;-92
2022/03/24 11:55:30;;;;;;;48.38;25.17;;;19.50;99.90;;;;;;4069999;29;20177;-92
2022/03/24 11:57:34;;;;;;;46.67;23.80;;;19.70;99.90;;;;;;4069893;29;20185;-91
2022/03/24 11:59:35;;;;;;;44.88;24.23;;;19.60;99.90;;;;;;4070025;29;20184;-94
2022/03/24 12:01:37;;;;;;;49.20;24.40;;;19.60;99.90;;;;;;4069899;29;20709;-91
2022/03/24 12:03:42;;;;;;;50.35;25.60;;;19.30;99.90;;;;;;4054390;29;20177;-91
2022/03/24 12:05:49;;;;;;;44.20;22.90;;;19.30;99.90;;;;;;4054261;29;20215;-92
2022/03/24 12:07:50;;;;;;;41.25;22.27;;;19.20;99.90;;;;;;4054185;29;20188;-91
2022/03/24 12:09:56;;;;;;;46.08;23.42;;;18.80;99.90;;;;;;4054206;29;20643;-93
2022/03/24 12:12:02;;;;;;;44.83;22.85;;;19.10;99.90;;;;;;4069199;29;20255;-92
2022/03/24 12:14:19;;;;;;;36.20;22.10;;;19.30;99.90;;;;;;4069750;29;20653;-92
2022/03/24 12:16:23;;;;;;;39.78;22.67;;;19.60;99.90;;;;;;4069502;29;20199;-93
2022/03/24 12:18:40;;;;;;;40.45;22.90;;;19.60;99.90;;;;;;4054233;29;20176;-93
2022/03/24 12:20:45;;;;;;;39.35;21.88;;;19.80;99.90;;;;;;4053771;29;20258;-91
2022/03/24 12:22:47;;;;;;;39.70;22.55;;;19.80;99.90;;;;;;4053832;29;20284;-94
2022/03/24 12:24:47;;;;;;;38.70;21.75;;;20.00;99.90;;;;;;4069406;29;20257;-93
2022/03/24 12:26:55;;;;;;;40.47;23.55;;;20.00;99.90;;;;;;4069906;29;20229;-94
2022/03/24 12:29:23;;;;;;;40.50;22.83;;;19.90;99.90;;;;;;4069360;29;20184;-95
2022/03/24 12:31:23;;;;;;;41.83;24.55;;;19.90;99.90;;;;;;4067838;29;20577;-93
2022/03/24 12:33:41;;;;;;;40.38;23.75;;;20.00;99.90;;;;;;4053832;29;20177;-93
2022/03/24 12:35:50;;;;;;;41.85;22.90;;;19.80;99.90;;;;;;4053770;29;20267;-93
2022/03/24 12:37:51;;;;;;;40.85;22.75;;;19.70;99.90;;;;;;4054212;29;20181;-94
2022/03/24 12:40:09;;;;;;;44.25;24.63;;;19.60;99.90;;;;;;4069323;29;20191;-94
2022/03/24 12:42:14;;;;;;;40.13;23.83;;;19.60;99.90;;;;;;4053600;29;20666;-92
2022/03/24 12:44:15;;;;;;;45.97;23.77;;;19.50;99.90;;;;;;4058040;29;20200;-92
2022/03/24 12:46:25;;;;;;;45.80;24.83;;;19.60;99.90;;;;;;4062777;29;20197;-92
2022/03/24 12:48:39;;;;;;;43.83;22.80;;;19.80;99.90;;;;;;4088719;29;20192;-92
2022/03/24 12:50:42;;;;;;;38.42;20.83;;;20.30;99.90;;;;;;4082779;29;20323;-93
2022/03/24 12:53:03;;;;;;;40.15;20.88;;;20.40;99.90;;;;;;4069330;29;20263;-92
2022/03/24 12:55:26;;;;;;;45.10;23.60;;;20.00;99.90;;;;;;4069065;29;20296;-93
2022/03/24 12:57:32;;;;;;;43.55;24.52;;;20.10;99.90;;;;;;4069082;29;20188;-92
2022/03/24 12:59:35;;;;;;;40.00;23.27;;;20.10;99.90;;;;;;4069263;29;20803;-92
2022/03/24 13:01:37;;;;;;;46.75;22.55;;;20.00;99.90;;;;;;4071166;29;20148;-93
2022/03/24 13:03:38;;;;;;;42.50;22.42;;;19.80;99.90;;;;;;4068802;29;20239;-93
2022/03/24 13:05:42;;;;;;;41.42;21.63;;;19.90;99.90;;;;;;4069227;29;20196;-94
2022/03/24 13:07:49;;;;;;;38.53;23.35;;;19.90;99.90;;;;;;4068805;29;20280;-91
2022/03/24 13:10:12;;;;;;;43.58;22.48;;;19.90;99.90;;;;;;4069211;29;20264;-93
2022/03/24 13:12:13;;;;;;;44.38;22.23;;;19.90;99.90;;;;;;4069555;29;20294;-93
2022/03/24 13:14:14;;;;;;;43.80;21.50;;;20.00;99.90;;;;;;4069542;29;20180;-92
2022/03/24 13:16:24;;;;;;;31.85;14.25;;;20.00;99.90;;;;;;4054430;29;20211;-92
2022/03/24 13:18:26;;;;;;;37.75;19.92;;;19.70;99.90;;;;;;4053124;29;20181;-93
2022/03/24 13:20:33;;;;;;;34.15;19.23;;;19.10;99.90;;;;;;4068829;29;20184;-94
2022/03/24 13:22:34;;;;;;;38.75;20.67;;;19.30;99.90;;;;;;4052835;29;20285;-92
2022/03/24 13:24:35;;;;;;;37.58;19.55;;;19.80;99.90;;;;;;4068685;29;20172;-93
2022/03/24 13:26:36;;;;;;;38.08;21.20;;;19.90;99.90;;;;;;4068910;29;20208;-94
2022/03/24 13:28:37;;;;;;;40.28;19.58;;;19.70;99.90;;;;;;4068961;29;20657;-93
2022/03/24 13:30:41;;;;;;;37.38;20.27;;;19.60;99.90;;;;;;4053841;29;20184;-94
2022/03/24 13:32:42;;;;;;;45.90;20.67;;;19.50;99.90;;;;;;4052957;29;20216;-93
2022/03/24 13:34:54;;;;;;;36.13;20.05;;;19.50;99.90;;;;;;4068616;29;20560;-92
2022/03/24 13:36:55;;;;;;;36.22;18.50;;;19.60;99.90;;;;;;4054628;29;20184;-93
2022/03/24 13:38:56;;;;;;;49.20;20.75;;;19.40;99.90;;;;;;4070225;29;20191;-93
2022/03/24 13:41:00;;;;;;;31.95;20.15;;;19.30;99.90;;;;;;4068680;29;20219;-93
2022/03/24 13:43:02;;;;;;;39.65;20.77;;;19.60;99.90;;;;;;4052998;29;20237;-94
2022/03/24 13:45:03;;;;;;;36.85;20.92;;;20.00;99.90;;;;;;4052926;29;20667;-93
2022/03/24 13:47:05;;;;;;;39.97;20.95;;;20.10;99.90;;;;;;4068519;29;20212;-92
2022/03/24 13:49:07;;;;;;;28.42;18.70;;;20.20;99.90;;;;;;4068536;29;20216;-93
2022/03/24 13:51:10;;;;;;;38.97;22.00;;;20.30;99.90;;;;;;4052685;29;20634;-93
2022/03/24 13:53:19;;;;;;;42.00;20.90;;;19.90;99.90;;;;;;4052969;29;20185;-93
2022/03/24 13:55:25;;;;;;;45.28;20.40;;;19.70;99.90;;;;;;4053103;29;20274;-93
2022/03/24 13:57:26;;;;;;;41.45;19.80;;;19.70;99.90;;;;;;4068271;29;20252;-92
2022/03/24 13:59:34;;;;;;;35.22;19.20;;;19.70;99.90;;;;;;4052183;29;20180;-94
2022/03/24 14:01:35;;;;;;;41.67;20.55;;;19.80;99.90;;;;;;4052738;29;20180;-92
2022/03/24 14:03:49;;;;;;;40.60;20.23;;;19.90;99.90;;;;;;4052949;29;20661;-94
2022/03/24 14:06:07;;;;;;;37.65;20.52;;;19.70;99.90;;;;;;4068455;29;20276;-92
2022/03/24 14:08:08;;;;;;;41.30;21.25;;;19.70;99.90;;;;;;4068501;29;20637;-93
2022/03/24 14:10:09;;;;;;;35.63;17.20;;;19.80;99.90;;;;;;4052796;29;20263;-93
2022/03/24 14:12:10;;;;;;;35.67;21.67;;;19.60;99.90;;;;;;4052723;29;20220;-93
2022/03/24 14:14:15;;;;;;;40.10;20.70;;;19.60;99.90;;;;;;4052547;29;20271;-93
2022/03/24 14:16:29;;;;;;;43.00;21.00;;;19.50;99.90;;;;;;4053055;29;20224;-92
2022/03/24 14:18:29;;;;;;;37.83;19.48;;;19.40;99.90;;;;;;4054265;29;20188;-93
2022/03/24 14:20:40;;;;;;;43.83;20.67;;;19.30;99.90;;;;;;4053027;29;20177;-92
2022/03/24 14:22:50;;;;;;;35.38;19.92;;;19.40;99.90;;;;;;4068390;29;20177;-93
2022/03/24 14:24:52;;;;;;;38.78;21.13;;;19.70;99.90;;;;;;4068260;29;20179;-94
2022/03/24 14:27:03;;;;;;;38.90;20.85;;;19.60;99.90;;;;;;4052949;29;20192;-94
2022/03/24 14:29:21;;;;;;;39.25;21.60;;;19.50;99.90;;;;;;4055053;29;20176;-93
2022/03/24 14:31:25;;;;;;;43.47;21.27;;;19.60;99.90;;;;;;4055193;29;20184;-93
2022/03/24 14:33:26;;;;;;;38.20;20.45;;;19.70;99.90;;;;;;4052550;29;20217;-93
2022/03/24 14:35:31;;;;;;;36.80;20.73;;;19.70;99.90;;;;;;4072276;29;20255;-92
2022/03/24 14:37:45;;;;;;;35.40;19.85;;;19.70;99.90;;;;;;4057256;29;20185;-93
2022/03/24 14:39:48;;;;;;;39.38;20.80;;;19.80;99.90;;;;;;4055729;29;20277;-93
2022/03/24 14:41:51;;;;;;;35.92;21.10;;;19.70;99.90;;;;;;4056135;29;20180;-93
2022/03/24 14:43:51;;;;;;;36.70;19.15;;;19.60;99.90;;;;;;4055833;29;20246;-91
2022/03/24 14:45:53;;;;;;;34.53;19.13;;;19.50;99.90;;;;;;4056555;29;20197;-92
2022/03/24 14:47:54;;;;;;;42.10;19.27;;;19.60;99.90;;;;;;4087889;29;20171;-93
2022/03/24 14:49:55;;;;;;;38.05;18.73;;;19.50;99.90;;;;;;4055368;29;20186;-92
2022/03/24 14:51:56;;;;;;;34.17;18.17;;;19.20;99.90;;;;;;4071446;29;20235;-92
2022/03/24 14:53:56;;;;;;;37.80;19.92;;;19.30;99.90;;;;;;4055443;29;20213;-94
2022/03/24 14:55:57;;;;;;;41.65;20.50;;;19.60;99.90;;;;;;4072155;29;20200;-93
2022/03/24 14:57:58;;;;;;;44.90;21.92;;;19.70;99.90;;;;;;4055549;29;20654;-94
2022/03/24 14:59:59;;;;;;;37.88;20.92;;;19.50;99.90;;;;;;4056401;29;20237;-94
2022/03/24 15:02:01;;;;;;;46.58;21.63;;;19.40;99.90;;;;;;4056278;29;20185;-94
2022/03/24 15:04:02;;;;;;;39.15;19.40;;;19.60;99.90;;;;;;4055094;29;20221;-94
2022/03/24 15:06:03;;;;;;;39.75;19.00;;;19.60;99.90;;;;;;4055712;29;20201;-93
2022/03/24 15:08:05;;;;;;;46.47;19.52;;;19.80;99.90;;;;;;4071234;29;20233;-94
2022/03/24 15:10:10;;;;;;;35.30;19.52;;;19.70;99.90;;;;;;4056059;29;20237;-93
2022/03/24 15:12:13;;;;;;;36.47;19.33;;;20.00;99.90;;;;;;4071982;29;20275;-94
2022/03/24 15:16:34;;;;;;;39.13;20.90;;;19.70;99.90;;;;;;4070622;29;20208;-94
2022/03/24 15:18:37;;;;;;;39.45;20.30;;;19.40;99.90;;;;;;4063303;29;20177;-94
2022/03/24 15:20:38;;;;;;;41.25;21.08;;;19.20;99.90;;;;;;4074216;29;20254;-93
2022/03/24 15:22:39;;;;;;;37.47;18.88;;;19.30;99.90;;;;;;4091023;29;20164;-93
2022/03/24 15:24:40;;;;;;;38.92;19.65;;;19.50;99.90;;;;;;4084968;29;20248;-94
2022/03/24 15:26:40;;;;;;;42.83;20.27;;;19.40;99.90;;;;;;4055627;29;20678;-94
2022/03/24 15:28:41;;;;;;;42.83;20.05;;;19.60;99.90;;;;;;4071053;29;20219;-94
2022/03/24 15:30:43;;;;;;;41.92;19.88;;;19.70;99.90;;;;;;4055040;29;20185;-94
2022/03/24 15:32:44;;;;;;;40.53;19.60;;;19.60;99.90;;;;;;4054745;29;20276;-94
2022/03/24 15:34:45;;;;;;;44.30;20.08;;;19.60;99.90;;;;;;4070201;29;20180;-94
2022/03/24 15:36:46;;;;;;;48.58;20.98;;;19.60;99.90;;;;;;4056349;29;20206;-94
2022/03/24 15:38:47;;;;;;;35.45;20.05;;;19.70;99.90;;;;;;4070608;29;20684;-93
2022/03/24 15:40:48;;;;;;;55.25;21.35;;;19.80;99.90;;;;;;4055335;29;20185;-94
2022/03/24 15:42:50;;;;;;;39.65;18.95;;;20.20;99.90;;;;;;4070421;29;20178;-95
2022/03/24 15:44:51;;;;;;;40.08;19.65;;;20.40;99.90;;;;;;4054429;29;20176;-93
2022/03/24 15:46:52;;;;;;;35.55;19.05;;;20.40;99.90;;;;;;4053833;29;20213;-93
2022/03/24 15:48:53;;;;;;;32.97;19.42;;;20.50;99.90;;;;;;4054648;29;20180;-93
2022/03/24 15:50:54;;;;;;;70.70;22.48;;;20.30;99.90;;;;;;4071831;29;20606;-93
2022/03/24 15:52:54;;;;;;;39.30;20.65;;;20.40;99.90;;;;;;4070638;29;20212;-94
2022/03/24 15:54:55;;;;;;;41.95;21.00;;;20.20;99.90;;;;;;4054633;29;20216;-95
2022/03/24 15:57:00;;;;;;;48.90;21.08;;;19.60;99.90;;;;;;4058806;29;20291;-94
2022/03/24 15:59:10;;;;;;;40.70;20.15;;;19.20;99.90;;;;;;4067916;29;20153;-92
2022/03/24 16:01:12;;;;;;;41.13;19.17;;;19.00;99.90;;;;;;4074518;29;20188;-93
2022/03/24 16:03:12;;;;;;;39.35;20.55;;;18.80;99.90;;;;;;4069713;29;20288;-93
2022/03/24 16:05:14;;;;;;;39.75;20.17;;;18.70;99.90;;;;;;4055743;29;20252;-93
2022/03/24 16:07:15;;;;;;;41.33;20.00;;;18.80;99.90;;;;;;4054155;29;20188;-93
2022/03/24 16:09:16;;;;;;;36.22;19.73;;;19.00;99.90;;;;;;4054503;29;20224;-95
2022/03/24 16:11:16;;;;;;;39.05;19.48;;;19.00;99.90;;;;;;4054475;29;20176;-93
2022/03/24 16:13:17;;;;;;;39.65;19.15;;;18.90;99.90;;;;;;4070735;29;20274;-93
2022/03/24 16:15:18;;;;;;;37.85;19.35;;;18.90;99.90;;;;;;4072013;29;20208;-94
2022/03/24 16:17:19;;;;;;;46.05;19.52;;;19.10;99.90;;;;;;4057299;29;20579;-93
2022/03/24 16:19:19;;;;;;;34.42;19.13;;;19.20;99.90;;;;;;4071332;29;20189;-93
2022/03/24 16:21:20;;;;;;;31.92;18.35;;;19.10;99.90;;;;;;4055289;29;20666;-93
2022/03/24 16:23:21;;;;;;;38.20;18.52;;;19.00;99.90;;;;;;4054224;29;20180;-93
2022/03/24 16:25:22;;;;;;;41.67;19.92;;;19.00;99.90;;;;;;4053674;29;20188;-94
2022/03/24 16:27:23;;;;;;;32.55;17.65;;;18.90;99.90;;;;;;4055161;29;20225;-92
2022/03/24 16:29:24;;;;;;;37.67;17.40;;;18.80;99.90;;;;;;4053780;29;20220;-93
2022/03/24 16:31:24;;;;;;;37.28;18.48;;;18.70;99.90;;;;;;4069452;29;20316;-92
2022/03/24 16:33:25;;;;;;;39.15;17.35;;;18.90;99.90;;;;;;4053777;29;20570;-92
2022/03/24 16:35:26;;;;;;;41.03;18.13;;;19.00;99.90;;;;;;4069105;29;20681;-93
2022/03/24 16:37:27;;;;;;;42.20;17.58;;;18.70;99.90;;;;;;4053592;29;20181;-92
2022/03/24 16:39:28;;;;;;;32.88;17.55;;;18.90;99.90;;;;;;4053851;29;20208;-92
2022/03/24 16:41:28;;;;;;;36.10;16.98;;;19.00;99.90;;;;;;4053699;29;20309;-92
2022/03/24 16:43:29;;;;;;;34.67;17.30;;;18.70;99.90;;;;;;4053503;29;20172;-93
2022/03/24 16:45:30;;;;;;;28.88;16.23;;;18.50;99.90;;;;;;4069152;29;20181;-94
2022/03/24 16:47:33;;;;;;;34.60;16.05;;;18.50;99.90;;;;;;4053932;29;20176;-94
2022/03/24 16:49:36;;;;;;;33.63;16.88;;;19.00;99.90;;;;;;4053650;29;20244;-92
2022/03/24 16:51:37;;;;;;;51.20;17.88;;;19.00;99.90;;;;;;4053820;29;20209;-93
2022/03/24 16:53:42;;;;;;;31.33;16.30;;;19.00;99.90;;;;;;4053310;29;20187;-92
2022/03/24 16:55:47;;;;;;;35.80;15.90;;;19.10;99.90;;;;;;4068943;29;20195;-93
2022/03/24 16:57:48;;;;;;;33.13;16.90;;;18.80;99.90;;;;;;4068098;29;20189;-93
2022/03/24 16:59:48;;;;;;;42.65;17.73;;;19.00;99.90;;;;;;4069671;29;20191;-93
2022/03/24 17:01:49;;;;;;;35.70;17.23;;;19.00;99.90;;;;;;4069393;29;20178;-92
2022/03/24 17:03:51;;;;;;;37.78;16.80;;;19.10;99.90;;;;;;4053660;29;20295;-93